Date,TemperatureHighF,TemperatureAvgF,TemperatureLowF,DewpointHighF,DewpointAvgF,DewpointLowF,HumidityHigh,HumidityAvg,HumidityLow,PressureMaxIn,PressureMinIn,WindSpeedMaxMPH,WindSpeedAvgMPH,GustSpeedMaxMPH,PrecipitationSumIn
2013-1-1,57,42,34,33,25,19,75,54,26,30.25,30.16,5,1,8,0.00
2013-1-2,62,42,31,32,24,20,76,53,25,30.22,30.10,6,1,8,0.00
2013-1-3,63,43,32,32,26,21,78,57,26,30.25,30.10,4,1,6,0.00
2013-1-4,66,45,34,36,28,20,82,58,23,30.25,30.16,6,1,8,0.00
2013-1-5,55,44,36,41,35,30,84,71,47,30.22,30.04,6,0,8,0.20
2013-1-6,48,45,43,45,41,36,95,87,74,30.13,30.04,4,0,6,0.12
2013-1-7,61,49,34,47,38,34,98,71,39,30.22,0.00,4,0,5,0.00
2013-1-8,67,48,39,48,36,30,95,69,31,30.22,30.10,4,1,6,0.00
2013-1-9,46,42,40,37,31,26,82,65,50,30.13,29.99,8,2,13,0.00
2013-1-10,58,45,37,29,23,14,64,46,25,30.16,30.01,7,2,10,0.00
2013-1-11,52,42,34,33,25,19,79,53,34,30.22,30.07,8,2,10,0.00
2013-1-12,55,40,32,31,21,10,80,51,23,30.19,30.07,5,1,8,0.00
2013-1-13,57,39,27,21,12,2,63,39,17,30.19,30.13,5,1,8,0.00
2013-1-14,60,43,34,12,5,-2,40,24,17,30.37,30.16,6,1,8,0.00
2013-1-15,63,41,29,21,15,10,56,39,19,30.43,30.34,5,0,6,0.00
2013-1-16,63,43,32,28,20,15,69,45,21,30.37,30.22,6,1,8,0.00
2013-1-17,72,47,35,30,21,13,64,41,17,30.22,30.10,4,0,6,0.00
2013-1-18,72,49,36,33,21,12,71,41,16,30.19,30.10,4,0,5,0.00
2013-1-19,71,49,36,26,21,17,52,37,17,30.22,30.13,4,0,6,0.00
2013-1-20,73,49,37,29,21,14,60,39,16,30.19,30.10,5,0,8,0.00
2013-1-21,72,48,35,30,23,19,64,42,21,30.16,30.07,8,1,9,0.00
2013-1-22,70,50,37,35,29,24,73,50,22,30.10,29.99,3,0,4,0.00
2013-1-23,53,49,46,46,40,35,87,71,54,30.07,29.93,6,0,8,0.08
2013-1-24,58,52,48,50,48,44,98,87,64,30.16,30.04,5,0,6,0.16
2013-1-25,72,57,50,57,48,41,98,76,36,30.16,30.01,4,0,7,0.00
2013-1-26,61,50,45,52,38,26,97,67,29,30.04,29.99,11,3,13,0.00
2013-1-27,63,48,40,34,27,14,71,49,21,30.13,30.01,8,2,13,0.00
2013-1-28,66,49,37,34,27,20,69,47,23,30.25,30.10,7,2,10,0.00
2013-1-29,66,48,0,38,31,24,80,57,25,30.31,30.22,7,1,9,0.00
2013-1-30,75,55,41,38,28,21,76,41,18,30.31,30.22,4,1,6,0.00
2013-1-31,71,52,39,40,32,27,76,52,24,30.25,30.16,5,1,8,0.00
2013-2-1,75,53,40,46,35,28,87,58,22,30.19,30.10,4,0,7,0.00
2013-2-2,70,52,0,45,39,34,83,65,30,30.25,30.16,4,0,5,0.00
2013-2-3,67,51,42,43,36,30,87,61,29,30.22,30.10,7,1,8,0.00
2013-2-4,72,50,39,45,37,28,88,66,23,30.16,30.04,4,0,8,0.00
2013-2-5,57,50,44,42,38,31,82,65,43,30.13,30.04,9,2,12,0.00
2013-2-6,65,48,37,41,34,26,87,64,28,30.16,30.07,10,2,12,0.00
2013-2-7,58,45,38,44,33,22,87,65,33,30.16,29.99,10,2,13,0.08
2013-2-8,59,44,37,40,31,18,89,64,30,29.99,29.90,10,1,12,0.04
2013-2-9,67,48,35,26,18,10,57,35,15,30.07,29.96,6,1,10,0.00
2013-2-10,68,48,32,28,23,20,70,43,22,30.07,29.99,7,1,10,0.00
2013-2-11,71,49,34,30,21,10,71,42,14,30.22,30.01,5,1,9,0.00
2013-2-12,71,50,35,30,24,18,64,42,19,30.31,30.19,4,0,6,0.00
2013-2-13,74,51,37,34,27,17,74,45,16,30.31,30.19,8,1,9,0.00
2013-2-14,78,58,0,38,27,0,78,38,15,30.22,30.13,6,1,9,0.00
2013-2-15,81,58,43,35,29,22,59,39,17,30.25,30.19,4,0,6,0.00
2013-2-16,76,56,44,42,34,27,74,49,21,30.22,30.04,4,0,5,0.00
2013-2-17,74,53,43,46,33,22,87,54,18,30.04,29.96,6,1,8,0.00
2013-2-18,51,46,39,41,32,25,85,59,41,30.01,29.93,11,3,15,0.00
2013-2-19,48,43,37,38,31,22,79,63,44,29.96,29.75,12,3,16,0.51
2013-2-20,65,46,33,34,28,18,80,55,20,30.04,29.81,10,2,12,0.00
2013-2-21,69,49,35,36,26,15,84,51,17,30.13,30.01,7,1,10,0.00
2013-2-22,68,49,0,40,29,17,81,52,20,30.22,30.10,10,1,13,0.00
2013-2-23,68,54,46,44,28,14,84,46,17,30.22,30.10,8,2,11,0.00
2013-2-24,72,53,41,19,14,8,41,26,14,30.22,30.10,7,1,10,0.00
2013-2-25,72,51,35,31,25,18,67,42,19,30.22,30.13,8,1,9,0.00
2013-2-26,77,54,35,34,22,10,83,40,13,30.19,30.10,7,1,10,0.00
2013-2-27,77,54,37,32,23,15,54,36,15,30.34,30.16,8,1,10,0.00
2013-2-28,76,56,43,42,37,30,79,55,25,30.40,30.31,9,2,12,0.00
2013-3-1,83,60,45,48,37,28,86,52,19,30.40,30.22,6,0,7,0.00
2013-3-2,75,60,49,46,37,30,74,48,24,30.22,30.04,8,1,15,0.00
2013-3-3,66,56,48,44,38,29,73,54,30,30.10,30.01,10,2,15,0.00
2013-3-4,69,51,43,42,36,23,78,60,28,30.13,30.01,9,2,13,0.00
2013-3-5,64,51,41,38,31,22,81,52,28,30.04,29.84,16,4,21,0.04
2013-3-6,56,49,40,41,32,23,77,55,31,30.04,29.81,16,4,24,0.08
2013-3-7,64,49,37,42,30,19,86,57,25,29.99,29.84,6,1,10,0.00
2013-3-8,62,50,41,40,33,22,75,56,27,30.01,29.81,11,2,17,0.00
2013-3-9,76,54,39,44,29,18,86,49,15,30.25,30.01,9,2,12,0.00
2013-3-10,80,56,38,40,24,12,77,39,12,30.28,30.22,6,1,8,0.00
2013-3-11,83,58,40,32,25,20,57,35,14,30.25,30.07,8,1,10,0.00
2013-3-12,87,62,44,39,32,27,68,39,16,30.13,30.04,4,1,7,0.00
2013-3-13,88,68,48,45,38,31,78,41,18,30.13,30.07,5,1,6,0.00
2013-3-14,79,62,51,50,39,25,81,49,22,30.13,30.07,9,1,13,0.00
2013-3-15,78,59,46,41,35,25,71,47,22,30.10,30.01,9,1,13,0.00
2013-3-16,78,58,47,52,38,27,98,58,21,30.10,30.01,10,2,15,0.00
2013-3-17,78,57,43,42,32,20,78,44,15,30.10,30.01,10,2,13,0.04
2013-3-18,73,55,41,41,33,26,83,51,22,30.13,30.01,12,1,17,0.00
2013-3-19,74,55,45,41,34,19,75,52,21,30.10,30.01,11,2,18,0.04
2013-3-20,66,55,50,55,46,32,92,74,35,30.13,30.04,11,2,15,0.04
2013-3-21,75,56,41,46,33,18,81,51,15,30.10,29.99,9,2,12,0.00
2013-3-22,76,59,42,36,19,7,73,31,13,30.07,30.01,7,2,10,0.00
2013-3-23,77,56,40,23,18,12,48,28,13,30.10,30.01,9,2,11,0.00
2013-3-24,78,57,42,33,28,22,62,39,20,30.04,29.93,8,2,11,0.00
2013-3-25,68,52,42,44,34,25,86,57,25,29.99,29.90,11,2,14,0.00
2013-3-26,75,57,46,40,34,26,77,48,22,29.99,29.93,8,3,12,0.00
2013-3-27,71,56,45,46,38,31,73,55,31,30.01,29.90,10,3,14,0.00
2013-3-28,77,62,54,54,44,34,89,58,26,30.07,29.99,5,0,7,0.04
2013-3-29,84,63,49,50,39,30,88,51,19,30.07,30.01,9,2,11,0.00
2013-3-30,75,61,54,50,42,31,79,55,26,30.07,29.99,10,2,12,0.04
2013-3-31,71,59,50,52,43,28,84,60,26,30.07,29.99,9,2,13,0.16
2013-4-1,72,58,51,56,44,34,94,65,31,30.13,30.04,8,2,13,0.08
2013-4-2,74,58,45,52,42,36,94,61,30,30.16,30.07,8,1,10,0.00
2013-4-3,86,61,46,58,41,30,98,58,18,30.13,29.99,8,1,12,0.00
2013-4-4,67,58,52,55,47,41,87,67,43,30.10,29.99,8,2,13,0.35
2013-4-5,67,58,53,50,43,34,81,61,35,30.16,30.10,10,2,13,0.00
2013-4-6,67,57,52,51,45,39,92,67,39,30.16,30.13,9,2,13,0.00
2013-4-7,67,56,51,49,43,34,87,64,35,30.16,29.84,11,3,20,0.35
2013-4-8,74,57,45,46,26,12,82,39,13,30.01,29.78,11,2,18,0.04
2013-4-9,82,64,48,28,18,10,46,22,12,30.07,29.99,5,2,9,0.00
2013-4-10,62,61,60,21,19,15,25,23,19,30.07,30.04,3,1,6,0.00
2013-4-12,82,64,45,45,34,22,83,40,19,29.90,0.00,10,2,14,0.00
2013-4-13,70,56,45,43,36,29,78,53,27,29.90,29.81,11,2,15,0.00
2013-4-14,69,54,41,46,34,24,88,54,22,29.93,29.84,11,3,18,0.00
2013-4-15,63,52,44,44,31,17,84,51,24,29.93,29.84,10,3,15,0.00
2013-4-16,75,56,39,34,20,10,74,34,13,30.13,29.93,6,1,9,0.00
2013-4-17,77,60,46,21,15,7,37,21,13,30.22,30.10,5,1,10,0.00
2013-4-18,85,61,39,29,21,14,65,28,11,30.22,30.16,9,1,11,0.00
2013-4-19,87,65,46,34,28,20,60,32,13,30.19,30.07,9,2,13,0.00
2013-4-20,88,66,48,44,29,19,78,34,13,30.10,29.99,8,2,11,0.00
2013-4-21,94,69,47,39,28,18,64,31,11,30.04,29.93,7,1,8,0.00
2013-4-22,96,72,50,41,28,18,65,27,11,29.99,29.84,5,1,8,0.00
2013-4-23,70,61,53,34,26,18,48,29,20,29.93,29.87,4,1,6,0.04
2013-4-24,78,59,44,44,35,24,78,48,20,29.93,29.81,11,2,15,0.00
2013-4-25,72,59,50,46,40,34,80,54,31,30.13,29.93,8,2,14,0.00
2013-4-26,84,61,49,46,38,28,83,50,20,30.19,30.10,10,1,13,0.00
2013-4-27,92,63,46,46,37,26,85,48,15,30.19,30.04,8,1,12,0.00
2013-4-28,96,68,47,49,37,28,84,43,14,30.07,29.90,5,1,8,0.00
2013-4-29,95,73,54,50,34,20,73,34,11,29.90,29.78,9,2,15,0.00
2013-4-30,92,69,50,52,30,10,85,36,12,29.87,29.78,8,1,13,0.00
2013-5-1,92,72,60,24,14,9,17,14,10,30.07,29.87,5,1,9,0.20
2013-5-2,99,74,55,29,18,10,36,17,10,30.16,30.07,7,1,10,0.00
2013-5-3,98,73,50,30,20,11,47,18,11,30.10,29.81,8,1,11,0.00
2013-5-4,93,70,53,40,25,17,51,24,12,29.81,29.57,9,2,14,0.00
2013-5-5,73,61,53,39,35,28,57,42,23,29.81,29.60,10,2,15,0.00
2013-5-6,70,61,51,52,42,31,83,53,28,29.96,29.81,9,1,11,0.04
2013-5-7,76,62,52,52,41,25,89,55,22,30.04,29.96,8,2,11,0.00
2013-5-8,71,58,51,49,42,34,83,60,30,30.13,30.01,9,2,14,0.00
2013-5-9,74,60,52,48,41,35,81,55,27,30.16,30.04,10,2,13,0.00
2013-5-10,83,62,52,47,42,34,78,54,22,30.16,30.10,8,1,13,0.00
2013-5-11,97,69,50,52,37,20,86,44,11,30.16,30.04,8,1,13,0.00
2013-5-12,87,68,53,49,38,31,75,40,19,30.13,30.01,9,1,13,0.00
2013-5-13,88,66,49,47,39,31,77,46,18,30.07,29.96,9,2,17,0.00
2013-5-14,78,62,51,50,38,26,81,48,20,30.01,29.93,10,1,13,0.00
2013-5-15,54,52,51,41,39,36,68,61,53,30.01,29.99,11,3,18,0.00
2013-5-16,60,54,0,43,42,0,68,61,47,29.99,29.96,13,5,22,0.00
2013-5-17,71,58,51,44,37,26,75,51,24,30.07,29.96,11,2,15,0.00
2013-5-18,80,61,48,47,38,26,82,49,21,30.10,30.04,10,2,14,0.00
2013-5-19,91,67,49,49,32,17,82,40,12,30.10,29.99,10,2,15,0.00
2013-5-20,96,70,50,42,27,13,66,29,11,30.01,29.93,10,2,15,0.00
2013-5-21,73,59,51,46,35,26,72,45,22,29.99,29.90,12,3,15,0.00
2013-5-22,74,56,44,38,24,12,61,36,13,29.99,29.90,12,2,17,0.00
2013-5-23,70,56,46,40,32,22,74,45,23,30.01,29.90,10,2,15,0.00
2013-5-24,72,55,44,46,34,21,83,53,19,29.99,29.93,10,2,17,0.00
2013-5-26,55,55,54,45,45,44,72,70,66,30.13,0.00,11,3,16,0.00
2013-5-27,65,58,51,52,45,40,82,65,45,30.13,29.99,8,2,13,0.00
2013-5-28,74,62,56,58,48,38,94,65,32,30.01,29.90,11,2,14,0.00
2013-5-29,71,61,52,47,42,37,72,53,33,29.96,29.93,10,3,17,0.00
2013-5-30,80,61,48,49,35,22,86,48,19,30.01,29.93,10,2,15,0.00
2013-5-31,93,69,48,47,30,17,82,36,12,30.01,29.90,10,2,13,0.04
2013-6-1,99,75,53,45,30,20,69,28,10,29.96,29.78,10,2,13,0.00
2013-6-2,90,70,54,49,36,21,75,36,13,29.81,29.69,7,1,13,0.00
2013-6-3,82,65,51,49,39,30,78,46,20,29.87,29.72,8,2,15,0.00
2013-6-4,75,62,52,50,43,37,83,55,30,29.96,29.84,10,2,18,0.00
2013-6-5,80,63,53,49,41,30,81,51,21,29.99,29.90,8,2,12,0.00
2013-6-6,91,67,51,48,41,32,78,48,18,29.96,29.84,7,1,11,0.00
2013-6-7,104,75,51,53,39,21,86,41,9,29.90,29.75,7,1,10,0.00
2013-6-8,109,81,63,47,35,21,53,28,8,29.81,29.72,10,1,14,0.00
2013-6-9,80,65,58,50,45,37,73,52,27,29.90,29.78,10,2,14,0.00
2013-6-10,73,62,55,50,42,36,81,52,32,29.96,29.81,11,3,15,0.00
2013-6-11,82,65,55,51,42,32,80,49,21,29.99,29.93,9,1,13,0.00
2013-6-12,80,64,51,49,36,23,81,43,17,30.01,29.90,12,2,17,0.00
2013-6-13,54,52,50,43,41,37,72,66,55,30.01,29.99,4,0,8,0.00
2013-6-14,91,76,0,32,22,0,36,18,12,29.93,29.84,11,4,15,0.00
2013-6-15,81,62,49,48,36,28,79,45,20,30.01,29.84,9,1,13,0.16
2013-6-16,84,64,48,51,38,26,87,48,17,30.10,29.96,11,2,14,0.04
2013-6-17,75,62,51,50,43,31,84,56,26,30.10,30.01,11,2,14,0.00
2013-6-18,69,60,53,51,42,31,85,57,29,30.04,29.96,12,4,17,0.00
2013-6-19,76,61,49,46,36,28,82,46,22,30.04,29.99,11,2,15,0.00
2013-6-20,81,63,49,48,36,23,80,45,18,30.01,29.96,11,2,17,0.00
2013-6-21,85,66,49,49,34,18,83,42,15,29.99,29.93,13,2,17,0.00
2013-6-22,91,68,51,47,34,20,76,39,12,29.96,29.84,11,2,15,0.00
2013-6-23,69,62,57,55,52,42,90,70,50,29.90,29.84,9,2,14,0.00
2013-6-24,67,63,59,57,54,50,83,73,56,29.93,29.81,8,1,10,0.00
2013-6-25,79,68,62,57,53,46,81,60,35,30.01,29.90,11,2,15,0.00
2013-6-26,89,73,63,59,50,38,82,53,21,30.07,29.99,8,2,11,0.00
2013-6-27,96,76,58,61,44,31,88,44,16,30.07,30.01,10,2,14,0.00
2013-6-28,102,82,61,52,37,20,70,30,10,30.04,29.93,9,2,15,0.00
2013-6-29,106,83,62,45,34,21,54,24,9,29.96,29.84,10,2,17,0.35
2013-6-30,102,80,63,48,36,21,57,28,10,29.87,29.78,10,2,15,0.00
2013-7-1,102,80,61,49,36,22,62,30,10,29.87,29.81,10,1,14,0.00
2013-7-2,103,81,67,48,38,21,48,28,9,29.93,29.84,9,1,13,0.00
2013-7-3,104,79,62,52,39,22,66,34,10,29.90,29.78,10,1,15,0.00
2013-7-4,101,83,70,48,35,22,43,24,10,29.81,29.69,10,2,15,0.00
2013-7-5,78,65,56,48,40,30,69,45,24,29.81,29.72,10,2,15,0.00
2013-7-6,83,65,56,49,41,32,76,49,21,29.81,29.75,10,2,15,0.00
2013-7-7,89,68,52,53,40,22,87,47,13,29.90,29.78,8,1,10,0.00
2013-7-8,92,70,52,51,37,20,83,42,12,29.99,29.87,8,2,12,0.00
2013-7-9,104,78,56,50,32,14,72,31,9,30.01,29.93,7,1,11,0.00
2013-7-10,70,65,61,33,30,25,37,30,22,29.99,29.96,0,0,3,0.00
2013-7-13,95,77,0,50,28,17,76,25,11,29.96,0.00,9,1,13,0.00
2013-7-14,92,69,52,49,33,18,74,36,12,29.99,29.90,9,1,12,0.00
2013-7-15,82,63,53,49,42,30,74,53,21,29.93,29.81,9,2,13,0.00
2013-7-16,76,63,56,49,44,34,76,55,26,30.04,29.87,11,2,17,0.00
2013-7-17,89,68,58,51,42,29,77,48,18,30.10,30.01,7,2,11,0.12
2013-7-18,94,69,52,54,37,20,91,45,11,30.07,29.93,12,2,15,0.00
2013-7-19,98,71,52,53,37,20,84,42,11,29.96,29.81,9,1,13,0.00
2013-7-20,98,71,53,51,39,22,79,42,11,29.87,29.72,8,1,13,0.00
2013-7-21,97,72,54,54,39,22,85,42,11,29.90,29.78,8,1,11,0.04
2013-7-22,88,70,57,54,42,22,81,44,13,29.99,29.87,8,1,12,0.00
2013-7-23,88,73,0,48,37,22,56,33,16,30.01,29.93,6,1,9,0.16
2013-7-24,96,75,58,49,34,20,66,31,11,29.99,29.90,9,2,13,0.00
2013-7-25,92,73,59,46,33,18,56,31,12,30.01,29.93,10,1,15,0.00
2013-7-26,93,71,55,50,39,28,73,40,14,30.07,29.99,9,1,12,0.00
2013-7-27,93,70,56,53,42,28,83,46,14,30.01,29.87,7,1,11,0.00
2013-7-28,86,67,56,53,43,32,80,50,19,29.90,29.81,8,1,13,0.00
2013-7-29,84,64,55,50,43,31,79,54,20,30.01,29.84,9,2,15,0.00
2013-7-30,88,66,53,54,42,30,87,51,18,30.07,29.99,8,1,12,0.00
2013-7-31,84,65,55,49,41,28,77,49,19,30.07,30.01,10,1,14,0.00
2013-8-1,80,64,54,50,39,27,82,48,20,30.07,29.96,10,2,15,0.00
2013-8-2,87,65,51,53,38,22,86,48,16,29.99,29.90,10,2,15,0.00
2013-8-3,86,66,52,53,40,27,84,48,16,29.96,29.90,9,1,15,0.00
2013-8-4,86,64,54,50,43,29,78,54,18,30.01,29.93,8,1,11,0.00
2013-8-5,86,66,56,50,43,31,79,52,19,30.01,29.93,8,1,10,0.00
2013-8-6,80,63,56,50,45,33,81,57,23,30.04,29.96,11,2,18,0.00
2013-8-7,78,64,57,52,46,36,81,58,26,30.07,30.01,10,2,13,0.00
2013-8-8,81,64,57,54,47,35,82,61,23,30.04,29.93,8,1,12,0.00
2013-8-9,79,63,56,52,46,36,82,59,26,29.99,29.93,10,2,13,0.00
2013-8-10,81,65,57,54,47,34,86,59,23,30.04,29.99,9,2,15,0.00
2013-8-11,88,68,57,54,44,31,83,52,18,30.04,29.93,10,1,13,0.20
2013-8-12,91,68,52,55,39,20,86,47,12,29.99,29.93,8,1,12,0.00
2013-8-13,100,71,53,50,36,20,79,39,10,29.99,29.90,10,1,15,0.00
2013-8-14,89,70,0,50,40,0,75,42,13,29.96,29.90,11,2,15,0.00
2013-8-15,90,72,59,58,50,35,86,54,18,29.96,29.90,10,1,16,0.00
2013-8-16,90,73,60,66,47,28,96,53,16,29.99,29.93,11,2,15,0.00
2013-8-17,85,68,57,53,45,31,80,51,19,29.96,29.87,8,1,11,0.00
2013-8-18,102,76,56,58,42,22,88,46,10,29.90,29.78,8,1,10,0.00
2013-8-19,107,81,66,48,36,19,51,28,9,29.90,29.81,9,1,14,0.00
2013-8-20,95,73,60,53,40,27,68,37,14,29.87,29.81,10,2,15,0.00
2013-8-21,88,67,56,53,42,31,82,48,19,29.93,29.84,10,1,13,0.16
2013-8-22,84,65,55,53,43,32,83,52,21,29.93,29.87,9,1,15,0.00
2013-8-23,85,67,57,51,43,30,76,51,19,29.93,29.78,8,1,12,0.00
2013-8-24,83,66,54,55,46,34,86,56,22,29.90,29.84,13,2,17,0.00
2013-8-25,86,70,62,59,51,41,81,57,25,29.93,29.87,12,2,17,0.04
2013-8-26,86,68,59,56,46,33,84,51,20,29.99,29.87,10,2,14,0.00
2013-8-27,89,68,54,54,44,26,84,51,15,29.90,29.78,12,2,16,0.00
2013-8-28,88,70,57,58,49,35,88,55,20,29.90,29.84,9,1,13,0.00
2013-8-29,89,71,61,58,50,33,83,56,19,30.01,29.90,9,2,13,0.00
2013-8-30,99,74,59,62,46,28,87,49,13,30.01,29.90,10,1,14,0.00
2013-8-31,91,71,58,54,42,22,74,44,12,29.96,29.87,9,1,13,0.00
2013-9-1,89,71,60,54,44,31,72,47,18,29.90,29.84,9,1,12,0.00
2013-9-2,83,70,64,57,52,40,76,57,26,29.93,29.87,9,2,13,0.08
2013-9-3,82,68,59,56,46,30,82,54,21,29.96,29.87,10,2,15,0.00
2013-9-4,80,67,0,56,48,36,84,58,25,29.96,29.90,12,3,18,0.00
2013-9-5,82,68,59,53,46,33,76,51,22,29.96,29.90,10,2,14,0.00
2013-9-6,99,74,54,56,37,20,87,43,10,29.93,29.75,5,0,7,0.00
2013-9-7,104,78,60,41,29,18,50,24,9,29.84,29.75,9,1,11,0.00
2013-9-8,104,79,60,45,31,20,50,26,9,29.81,29.66,7,1,10,0.00
2013-9-9,105,78,61,45,32,20,51,27,9,29.75,29.63,11,1,14,0.12
2013-9-10,87,70,58,54,44,34,72,47,19,29.81,29.63,10,1,15,0.00
2013-9-11,82,68,0,53,47,0,71,51,27,29.90,29.81,8,2,11,0.00
2013-9-12,89,69,61,56,49,34,81,55,20,29.90,29.81,10,1,15,0.00
2013-9-13,91,68,58,52,45,30,76,51,18,29.81,29.66,10,1,17,0.00
2013-9-14,79,64,56,53,46,39,82,59,28,29.72,29.63,10,1,13,0.00
2013-9-15,85,66,56,54,46,34,80,56,21,29.78,29.66,9,2,13,0.00
2013-9-16,86,68,58,58,47,34,87,57,19,29.78,22.16,11,2,15,0.00
2013-9-17,77,65,58,52,44,31,76,52,23,29.78,29.69,11,2,17,0.00
2013-9-18,92,67,52,52,34,20,82,42,12,29.78,29.69,12,2,15,0.00
2013-9-19,99,72,51,38,28,14,58,29,10,29.75,29.63,8,1,13,0.00
2013-9-20,79,64,52,52,44,31,74,52,32,29.72,29.63,12,2,19,0.00
2013-9-21,68,62,56,56,50,40,83,67,39,29.75,29.69,9,3,15,0.43
2013-9-22,76,62,51,58,46,35,94,61,28,29.87,29.75,9,2,13,0.00
2013-9-23,91,68,52,56,44,30,90,53,17,29.87,29.78,9,1,13,0.00
2013-9-24,77,64,57,52,44,32,82,53,23,29.84,29.75,11,3,17,0.00
2013-9-25,76,62,54,38,33,24,56,39,20,29.78,29.66,10,2,15,0.00
2013-9-26,85,63,46,40,28,16,74,36,13,29.81,29.66,9,1,13,0.00
2013-9-27,72,71,0,34,23,0,39,20,19,29.93,29.90,4,2,6,0.00
2013-9-28,72,72,72,23,23,23,19,19,19,29.93,29.93,2,2,4,0.00
2013-9-29,72,72,72,23,23,23,19,19,19,29.93,29.93,2,2,4,0.00
2013-9-30,72,72,72,23,23,23,19,19,19,29.93,29.93,2,2,4,0.00
2013-10-1,72,72,72,23,23,23,19,19,19,29.93,29.93,2,2,4,0.00
2013-10-2,72,72,72,23,23,23,19,19,19,29.93,29.93,2,2,4,0.00
2013-10-3,72,72,72,23,23,23,19,19,19,29.93,29.93,2,2,4,0.00
2013-10-4,72,72,72,23,23,23,19,19,19,29.93,29.93,2,2,4,0.00
2013-10-5,72,72,72,23,23,23,19,19,19,29.93,29.93,2,2,4,0.00
2013-10-6,72,72,72,23,23,23,19,19,19,29.93,29.93,2,2,4,0.00
2013-10-7,72,72,72,23,23,23,19,19,19,29.93,29.93,2,2,4,0.00
2013-10-8,72,72,72,23,23,23,19,19,19,29.93,29.93,2,2,4,0.00
2013-10-9,72,72,72,23,23,23,19,19,19,29.93,29.93,2,2,4,0.00
2013-10-17,70,62,57,15,12,9,22,17,14,29.81,29.75,2,0,3,0.00
2013-10-18,92,66,49,27,21,14,41,23,11,29.84,29.75,4,0,5,0.00
2013-10-19,94,67,50,34,25,12,54,28,11,29.84,29.78,4,0,5,0.00
2013-10-20,93,66,50,35,27,17,58,31,12,29.84,29.69,7,0,9,0.00
2013-10-21,90,64,48,44,33,21,72,40,12,29.75,29.66,5,0,6,0.00
2013-10-22,91,64,48,46,36,22,78,45,12,29.78,29.66,4,0,5,0.00
2013-10-23,88,62,47,48,38,28,82,50,18,29.72,29.60,4,0,5,0.00
2013-10-24,71,56,49,47,40,31,83,61,27,29.84,29.69,7,1,13,0.00
2013-10-25,85,60,47,48,39,26,86,54,16,29.87,29.78,4,0,5,0.00
2013-10-26,89,63,47,49,34,20,84,45,13,29.84,29.72,3,0,5,0.00
2013-10-27,66,54,46,48,39,32,84,59,34,29.75,29.37,22,4,28,0.04
2013-10-28,62,54,46,45,38,30,83,60,33,29.57,29.37,11,3,24,0.00
2013-10-29,66,56,48,45,38,27,74,54,26,29.75,29.54,9,2,11,0.00
2013-10-30,75,56,43,44,34,24,84,54,21,29.81,29.72,6,0,6,0.00
2013-11-4,57,57,55,12,12,11,20,20,19,29.69,0.00,4,1,5,0.00
2013-11-5,80,61,48,22,16,10,33,22,12,29.84,29.66,4,0,6,0.00
2013-11-6,79,59,46,30,22,15,47,29,15,29.84,29.75,6,0,8,0.00
2013-11-7,83,61,49,30,23,12,46,29,13,29.75,29.63,10,1,11,0.00
2013-11-8,82,60,46,41,34,25,73,45,17,29.66,29.51,8,1,13,0.00
2013-11-9,58,49,46,45,38,36,76,68,48,29.57,29.54,0,0,3,0.00
2013-11-11,74,62,0,50,36,0,89,43,23,29.72,29.60,4,0,6,0.00
2013-11-12,81,62,52,41,34,25,58,40,17,29.81,29.69,5,0,7,0.00
2013-11-13,52,50,49,36,35,33,60,56,51,29.78,29.75,0,0,0,0.00
2013-11-14,78,58,47,51,41,32,89,58,23,29.63,0.00,8,1,9,0.00
2013-11-15,73,54,44,43,30,17,78,47,16,29.39,29.25,8,1,11,0.00
2013-11-16,65,52,44,44,37,25,86,62,26,29.48,29.28,10,2,15,0.00
2013-11-17,70,56,49,47,39,26,86,62,24,29.60,29.45,7,2,9,0.00
2013-11-18,63,54,42,45,38,32,84,59,32,30.14,30.05,8,1,10,0.00
2013-11-19,62,55,48,55,46,39,93,74,44,30.11,29.96,5,0,6,0.31
2013-11-20,61,56,54,59,53,50,98,90,72,29.96,29.87,4,0,8,0.39
2013-11-21,65,55,0,50,39,32,96,49,16,29.96,29.90,5,1,10,0.12
2013-11-22,75,58,49,32,32,32,21,17,13,30.02,29.90,5,1,9,0.00
2013-11-23,70,54,42,32,32,32,60,30,17,30.08,29.96,6,0,8,0.00
2013-11-24,72,51,40,39,33,32,77,51,21,30.25,30.05,3,0,5,0.00
2013-11-25,72,51,39,41,34,32,81,55,23,30.28,30.20,4,0,5,0.00
2013-11-26,67,51,42,41,35,32,78,56,24,30.25,30.02,4,0,5,0.00
2013-11-27,67,52,43,45,38,34,83,60,32,30.02,29.81,4,0,4,0.00
2013-11-28,75,55,45,43,35,32,79,51,18,30.08,29.84,4,0,6,0.00
2013-11-29,77,56,43,37,33,32,70,44,18,30.20,30.08,5,0,6,0.00
2013-11-30,75,54,42,41,34,32,73,50,21,30.23,30.17,3,0,4,0.00
2013-12-1,70,61,0,43,34,32,78,37,24,30.28,30.23,4,1,4,0.00
2013-12-2,71,60,0,50,38,32,86,49,22,30.25,29.96,12,2,15,0.00
2013-12-3,59,49,39,55,36,32,98,47,25,29.96,29.78,12,2,18,0.00
2013-12-4,60,43,30,32,32,32,42,27,17,30.05,29.90,5,0,8,0.00
2013-12-5,59,38,25,32,32,32,48,32,17,30.14,29.99,4,0,8,0.00
2013-12-6,54,41,27,43,34,32,85,52,26,30.14,29.93,7,2,9,0.20
2013-12-7,53,43,32,43,35,32,85,55,24,30.17,29.93,8,3,13,0.55
2013-12-8,53,37,29,32,32,32,77,45,21,30.23,30.11,4,1,8,0.00
2013-12-9,58,40,30,32,32,32,52,31,17,30.34,30.17,8,2,9,0.00
2013-12-10,58,40,28,32,32,32,70,43,20,30.31,30.14,6,0,8,0.00
2013-12-11,63,43,32,32,32,32,67,41,19,30.20,30.11,7,0,9,0.00
2013-12-12,38,36,34,32,32,32,56,51,47,30.17,30.14,0,0,0,0.00
2013-12-13,66,49,32,36,32,32,80,41,20,30.25,30.17,4,0,6,0.00
2013-12-14,68,47,35,34,32,32,67,42,17,30.31,30.20,5,0,6,0.00
2013-12-15,70,48,36,32,32,32,68,43,20,30.31,30.17,3,0,4,0.00
2013-12-16,74,52,40,32,32,32,54,36,16,30.20,30.05,4,0,6,0.00
2013-12-17,68,52,40,36,32,32,66,42,23,30.11,29.96,2,0,4,0.00
2013-12-18,66,51,43,45,35,32,83,50,24,29.99,29.69,13,1,20,0.00
2013-12-19,65,50,40,43,33,32,82,40,15,29.87,29.64,10,1,20,0.00
2013-12-20,68,50,35,32,32,32,28,20,15,29.93,29.81,6,1,9,0.00
2013-12-21,72,50,37,37,33,32,73,39,16,30.02,29.87,3,0,5,0.00
2013-12-22,73,51,38,41,33,32,80,50,16,30.23,29.99,4,0,6,0.00
2013-12-23,69,51,40,34,32,32,66,44,22,30.28,30.20,4,0,4,0.00
2013-12-24,76,54,40,36,32,32,67,40,15,30.25,30.14,4,0,6,0.00
2013-12-25,72,52,41,36,32,32,66,41,21,30.20,30.11,4,0,5,0.00
2013-12-26,74,52,40,39,32,32,71,43,16,30.17,30.11,3,0,4,0.00
2013-12-27,62,48,38,34,32,32,70,49,27,30.17,30.05,3,0,5,0.00
2013-12-28,73,50,35,36,32,32,77,41,14,30.05,29.96,5,0,8,0.00
2013-12-29,73,55,43,32,32,32,43,22,14,30.11,29.96,4,0,6,0.00
2013-12-30,71,50,37,32,32,32,58,40,17,30.17,30.05,4,0,6,0.00
2013-12-31,69,49,38,32,32,32,65,41,17,30.14,30.02,4,0,5,0.00
2014-1-1,73,51,37,32,32,32,49,31,14,30.14,29.99,3,0,5,0.00
2014-1-2,73,53,41,32,32,32,51,33,16,30.08,29.93,4,0,6,0.00